createdAt,value
2023-10-16T00:12:29.295Z,9.2
2023-10-16T00:27:29.308Z,9.5
2023-10-16T00:42:29.297Z,9.8
2023-10-16T00:57:29.230Z,9.8
2023-10-16T01:12:29.252Z,9.6
2023-10-16T01:42:29.220Z,9.2
2023-10-16T01:57:29.144Z,9
2023-10-16T02:12:29.118Z,8.9
2023-10-16T02:27:29.093Z,8.9
2023-10-16T02:42:29.121Z,8.9
2023-10-16T02:57:29.188Z,8.9
2023-10-16T03:12:29.096Z,8.8
2023-10-16T03:27:29.037Z,8.9
2023-10-16T03:42:29.010Z,9
2023-10-16T03:57:28.999Z,8.9
2023-10-16T04:12:29.027Z,8.9
2023-10-16T04:27:29.012Z,9
2023-10-16T04:42:29.024Z,9
2023-10-16T04:57:28.920Z,9
2023-10-16T05:12:28.968Z,8.9
2023-10-16T05:27:28.926Z,8.8
2023-10-16T05:42:28.912Z,8.7
2023-10-16T05:57:28.879Z,8.6
2023-10-16T06:12:28.923Z,8.6
2023-10-16T06:27:28.824Z,8.7
2023-10-16T06:42:28.851Z,8.8
2023-10-16T06:57:28.766Z,9.1
2023-10-16T07:12:28.796Z,9.7
2023-10-16T07:27:28.782Z,9.9
2023-10-16T07:42:28.774Z,10.5
2023-10-16T07:57:28.837Z,11.3
2023-10-16T08:12:28.761Z,11.2
2023-10-16T08:27:28.704Z,11.4
2023-10-16T08:42:28.721Z,12.1
2023-10-16T08:57:28.631Z,11.7
2023-10-16T09:12:28.667Z,11.8
2023-10-16T09:27:28.571Z,12.3
2023-10-16T09:42:28.628Z,12.1
2023-10-16T09:57:28.582Z,12.2
2023-10-16T10:12:28.666Z,12.3
2023-10-16T10:27:28.520Z,12.6
2023-10-16T10:42:28.463Z,13.1
2023-10-16T10:57:28.462Z,13.4
2023-10-16T11:12:28.455Z,13.6
2023-10-16T11:27:28.396Z,13.5
2023-10-16T11:42:28.429Z,13.6
2023-10-16T11:57:28.422Z,14
2023-10-16T12:12:28.363Z,14.3
2023-10-16T12:27:28.332Z,14.3
2023-10-16T12:42:28.319Z,14.7
2023-10-16T12:57:28.292Z,14.9
2023-10-16T13:12:28.274Z,14.9
2023-10-16T13:27:28.244Z,14.9
2023-10-16T13:42:28.252Z,15.1
2023-10-16T13:57:28.196Z,15.2
2023-10-16T14:12:28.205Z,15.3
2023-10-16T14:27:28.132Z,15.5
2023-10-16T14:42:28.172Z,15.6
2023-10-16T14:57:28.113Z,15.5
2023-10-16T15:12:28.107Z,15.3
2023-10-16T15:27:28.059Z,15.2
2023-10-16T15:42:28.068Z,15.1
2023-10-16T15:57:28.025Z,15
2023-10-16T16:12:27.976Z,14.9
2023-10-16T16:27:27.975Z,14.7
2023-10-16T16:42:27.980Z,14.5
2023-10-16T16:57:27.949Z,14.4
2023-10-16T17:12:27.942Z,14.3
2023-10-16T17:27:27.887Z,14.2
2023-10-16T17:42:27.899Z,14
2023-10-16T17:57:27.839Z,14
2023-10-16T18:12:27.841Z,13.7
2023-10-16T18:27:27.772Z,13.3
2023-10-16T18:42:27.813Z,13.1
2023-10-16T18:57:27.751Z,12.9
2023-10-16T19:12:29.224Z,12.7
2023-10-16T19:27:27.729Z,12.6
2023-10-16T19:42:27.722Z,12.5
2023-10-16T19:57:27.647Z,12.5
2023-10-16T20:12:27.676Z,12.2
2023-10-16T20:27:27.614Z,12.2
2023-10-16T20:42:27.713Z,12
2023-10-16T20:57:27.636Z,11.8
2023-10-16T21:12:27.656Z,11.5
2023-10-16T21:27:27.656Z,11.2
2023-10-16T21:42:27.545Z,11.1
2023-10-16T21:57:27.526Z,10.6
2023-10-16T22:12:27.532Z,10.3
2023-10-16T22:27:27.547Z,10.3
2023-10-16T22:42:27.513Z,10
2023-10-16T22:57:27.475Z,10.1
2023-10-16T23:12:27.463Z,10.2
2023-10-16T23:27:27.539Z,9.9
2023-10-16T23:42:27.462Z,9.6
2023-10-16T23:57:27.440Z,9.2
